sensor_id;sensor_type;location;lat;lon;timestamp;temperature;humidity
24446;DHT22;13347;50.984;5.822;2023-04-23T00:01:45;9.90;99.90
24446;DHT22;13347;50.984;5.822;2023-04-23T00:04:13;9.80;99.90
24446;DHT22;13347;50.984;5.822;2023-04-23T00:06:42;9.80;99.90
24446;DHT22;13347;50.984;5.822;2023-04-23T00:09:09;9.70;99.90
24446;DHT22;13347;50.984;5.822;2023-04-23T00:11:38;9.80;99.90
24446;DHT22;13347;50.984;5.822;2023-04-23T00:14:05;9.80;99.90
24446;DHT22;13347;50.984;5.822;2023-04-23T00:16:33;9.80;99.90
24446;DHT22;13347;50.984;5.822;2023-04-23T00:19:01;9.70;99.90
24446;DHT22;13347;50.984;5.822;2023-04-23T00:21:28;9.80;99.90
24446;DHT22;13347;50.984;5.822;2023-04-23T00:23:55;9.70;99.90
24446;DHT22;13347;50.984;5.822;2023-04-23T00:26:22;9.60;99.90
24446;DHT22;13347;50.984;5.822;2023-04-23T00:28:49;9.50;99.90
24446;DHT22;13347;50.984;5.822;2023-04-23T00:31:16;9.50;99.90
24446;DHT22;13347;50.984;5.822;2023-04-23T00:33:43;9.50;99.90
24446;DHT22;13347;50.984;5.822;2023-04-23T00:36:11;9.50;99.90
24446;DHT22;13347;50.984;5.822;2023-04-23T00:38:38;9.50;99.90
24446;DHT22;13347;50.984;5.822;2023-04-23T00:41:05;9.50;99.90
24446;DHT22;13347;50.984;5.822;2023-04-23T00:43:32;9.50;99.90
24446;DHT22;13347;50.984;5.822;2023-04-23T00:45:59;9.40;99.90
24446;DHT22;13347;50.984;5.822;2023-04-23T00:48:27;9.50;99.90
24446;DHT22;13347;50.984;5.822;2023-04-23T00:50:57;9.60;99.90
24446;DHT22;13347;50.984;5.822;2023-04-23T00:53:25;9.60;99.90
24446;DHT22;13347;50.984;5.822;2023-04-23T00:55:52;9.70;99.90
24446;DHT22;13347;50.984;5.822;2023-04-23T00:58:19;9.80;99.90
24446;DHT22;13347;50.984;5.822;2023-04-23T01:00:46;9.90;99.90
24446;DHT22;13347;50.984;5.822;2023-04-23T01:03:16;10.00;99.90
24446;DHT22;13347;50.984;5.822;2023-04-23T01:05:46;10.10;99.90
24446;DHT22;13347;50.984;5.822;2023-04-23T01:08:13;10.10;99.90
24446;DHT22;13347;50.984;5.822;2023-04-23T01:10:42;10.20;99.90
24446;DHT22;13347;50.984;5.822;2023-04-23T01:13:10;10.20;99.90
24446;DHT22;13347;50.984;5.822;2023-04-23T01:15:37;10.20;99.90
24446;DHT22;13347;50.984;5.822;2023-04-23T01:18:04;10.30;99.90
24446;DHT22;13347;50.984;5.822;2023-04-23T01:20:32;10.30;99.90
24446;DHT22;13347;50.984;5.822;2023-04-23T01:23:01;10.30;99.90
24446;DHT22;13347;50.984;5.822;2023-04-23T01:25:28;10.30;99.90
24446;DHT22;13347;50.984;5.822;2023-04-23T01:27:55;10.30;99.90
24446;DHT22;13347;50.984;5.822;2023-04-23T01:30:23;10.20;99.90
24446;DHT22;13347;50.984;5.822;2023-04-23T01:32:51;10.20;99.90
24446;DHT22;13347;50.984;5.822;2023-04-23T01:35:19;10.10;99.90
24446;DHT22;13347;50.984;5.822;2023-04-23T01:37:47;10.00;99.90
24446;DHT22;13347;50.984;5.822;2023-04-23T01:40:17;10.00;99.90
24446;DHT22;13347;50.984;5.822;2023-04-23T01:42:44;10.00;99.90
24446;DHT22;13347;50.984;5.822;2023-04-23T01:45:11;10.10;99.90
24446;DHT22;13347;50.984;5.822;2023-04-23T01:47:38;10.10;99.90
24446;DHT22;13347;50.984;5.822;2023-04-23T01:50:06;10.10;99.90
24446;DHT22;13347;50.984;5.822;2023-04-23T01:52:33;10.00;99.90
24446;DHT22;13347;50.984;5.822;2023-04-23T01:55:00;10.00;99.90
24446;DHT22;13347;50.984;5.822;2023-04-23T01:57:29;10.10;99.90
24446;DHT22;13347;50.984;5.822;2023-04-23T01:59:56;10.10;99.90
24446;DHT22;13347;50.984;5.822;2023-04-23T02:02:26;10.00;99.90
24446;DHT22;13347;50.984;5.822;2023-04-23T02:04:53;10.00;99.90
24446;DHT22;13347;50.984;5.822;2023-04-23T02:07:20;10.00;99.90
24446;DHT22;13347;50.984;5.822;2023-04-23T02:09:47;10.00;99.90
24446;DHT22;13347;50.984;5.822;2023-04-23T02:12:14;10.10;99.90
24446;DHT22;13347;50.984;5.822;2023-04-23T02:14:42;10.10;99.90
24446;DHT22;13347;50.984;5.822;2023-04-23T02:17:09;10.10;99.90
24446;DHT22;13347;50.984;5.822;2023-04-23T02:19:36;10.10;96.40
24446;DHT22;13347;50.984;5.822;2023-04-23T02:22:03;10.00;93.50
24446;DHT22;13347;50.984;5.822;2023-04-23T02:24:31;10.00;85.60
24446;DHT22;13347;50.984;5.822;2023-04-23T02:26:58;10.10;76.50
24446;DHT22;13347;50.984;5.822;2023-04-23T02:29:25;10.10;50.00
24446;DHT22;13347;50.984;5.822;2023-04-23T02:31:54;10.10;23.50
24446;DHT22;13347;50.984;5.822;2023-04-23T02:34:21;10.20;13.50
24446;DHT22;13347;50.984;5.822;2023-04-23T02:36:47;10.30;1.00
24446;DHT22;13347;50.984;5.822;2023-04-23T02:39:15;10.50;1.00
24446;DHT22;13347;50.984;5.822;2023-04-23T02:41:42;10.50;1.00
24446;DHT22;13347;50.984;5.822;2023-04-23T02:44:09;10.60;1.00
24446;DHT22;13347;50.984;5.822;2023-04-23T02:46:36;10.70;1.00
24446;DHT22;13347;50.984;5.822;2023-04-23T02:49:05;10.80;1.00
24446;DHT22;13347;50.984;5.822;2023-04-23T02:51:32;10.90;1.00
24446;DHT22;13347;50.984;5.822;2023-04-23T02:53:59;11.00;1.00
24446;DHT22;13347;50.984;5.822;2023-04-23T02:56:26;11.00;1.00
24446;DHT22;13347;50.984;5.822;2023-04-23T02:58:53;11.10;1.00
24446;DHT22;13347;50.984;5.822;2023-04-23T03:01:20;11.10;1.00
24446;DHT22;13347;50.984;5.822;2023-04-23T03:03:47;11.20;1.00
24446;DHT22;13347;50.984;5.822;2023-04-23T03:06:15;11.30;1.00
24446;DHT22;13347;50.984;5.822;2023-04-23T03:08:42;11.30;1.00
24446;DHT22;13347;50.984;5.822;2023-04-23T03:11:09;11.30;1.00
24446;DHT22;13347;50.984;5.822;2023-04-23T03:13:36;11.40;1.00
24446;DHT22;13347;50.984;5.822;2023-04-23T03:16:03;11.50;1.00
24446;DHT22;13347;50.984;5.822;2023-04-23T03:18:30;11.60;99.90
24446;DHT22;13347;50.984;5.822;2023-04-23T03:20:57;11.60;99.90
24446;DHT22;13347;50.984;5.822;2023-04-23T03:23:25;11.60;99.90
24446;DHT22;13347;50.984;5.822;2023-04-23T03:25:52;11.60;99.90
24446;DHT22;13347;50.984;5.822;2023-04-23T03:28:19;11.60;99.90
24446;DHT22;13347;50.984;5.822;2023-04-23T03:30:46;11.60;99.90
24446;DHT22;13347;50.984;5.822;2023-04-23T03:33:13;11.50;99.90
24446;DHT22;13347;50.984;5.822;2023-04-23T03:35:40;11.60;99.90
24446;DHT22;13347;50.984;5.822;2023-04-23T03:38:07;11.60;99.90
24446;DHT22;13347;50.984;5.822;2023-04-23T03:40:35;11.70;99.90
24446;DHT22;13347;50.984;5.822;2023-04-23T03:43:02;11.70;99.90
24446;DHT22;13347;50.984;5.822;2023-04-23T03:45:29;11.60;99.90
24446;DHT22;13347;50.984;5.822;2023-04-23T03:47:56;11.70;99.90
24446;DHT22;13347;50.984;5.822;2023-04-23T03:50:23;11.70;99.90
24446;DHT22;13347;50.984;5.822;2023-04-23T03:52:50;11.70;99.90
24446;DHT22;13347;50.984;5.822;2023-04-23T03:55:17;11.70;99.90
24446;DHT22;13347;50.984;5.822;2023-04-23T03:57:46;11.70;99.90
24446;DHT22;13347;50.984;5.822;2023-04-23T04:00:13;11.80;99.90
24446;DHT22;13347;50.984;5.822;2023-04-23T04:02:40;11.80;99.90
24446;DHT22;13347;50.984;5.822;2023-04-23T04:05:07;11.80;99.90
24446;DHT22;13347;50.984;5.822;2023-04-23T04:07:35;11.80;99.90
24446;DHT22;13347;50.984;5.822;2023-04-23T04:10:02;11.90;29.80
24446;DHT22;13347;50.984;5.822;2023-04-23T04:12:29;11.90;1.00
24446;DHT22;13347;50.984;5.822;2023-04-23T04:14:58;11.90;1.00
24446;DHT22;13347;50.984;5.822;2023-04-23T04:17:25;11.90;1.00
24446;DHT22;13347;50.984;5.822;2023-04-23T04:19:51;12.00;1.00
24446;DHT22;13347;50.984;5.822;2023-04-23T04:22:18;12.00;1.00
24446;DHT22;13347;50.984;5.822;2023-04-23T04:24:45;12.10;1.00
24446;DHT22;13347;50.984;5.822;2023-04-23T04:27:13;12.10;1.00
24446;DHT22;13347;50.984;5.822;2023-04-23T04:29:40;12.10;1.00
24446;DHT22;13347;50.984;5.822;2023-04-23T04:32:08;12.10;1.00
24446;DHT22;13347;50.984;5.822;2023-04-23T04:34:35;12.10;1.00
24446;DHT22;13347;50.984;5.822;2023-04-23T04:37:03;12.10;1.00
24446;DHT22;13347;50.984;5.822;2023-04-23T04:39:30;12.20;99.90
24446;DHT22;13347;50.984;5.822;2023-04-23T04:41:57;12.20;99.90
24446;DHT22;13347;50.984;5.822;2023-04-23T04:44:24;12.20;99.90
24446;DHT22;13347;50.984;5.822;2023-04-23T04:46:51;12.20;99.90
24446;DHT22;13347;50.984;5.822;2023-04-23T04:49:19;12.20;99.90
24446;DHT22;13347;50.984;5.822;2023-04-23T04:51:46;12.20;99.90
24446;DHT22;13347;50.984;5.822;2023-04-23T04:54:13;12.20;63.50
24446;DHT22;13347;50.984;5.822;2023-04-23T04:56:40;12.20;99.90
24446;DHT22;13347;50.984;5.822;2023-04-23T04:59:07;12.20;99.90
24446;DHT22;13347;50.984;5.822;2023-04-23T05:01:34;12.10;99.90
24446;DHT22;13347;50.984;5.822;2023-04-23T05:04:01;12.10;99.90
24446;DHT22;13347;50.984;5.822;2023-04-23T05:06:29;12.10;99.90
24446;DHT22;13347;50.984;5.822;2023-04-23T05:08:56;12.10;99.90
24446;DHT22;13347;50.984;5.822;2023-04-23T05:11:23;12.20;99.90
24446;DHT22;13347;50.984;5.822;2023-04-23T05:13:50;12.20;99.90
24446;DHT22;13347;50.984;5.822;2023-04-23T05:16:17;12.30;86.50
24446;DHT22;13347;50.984;5.822;2023-04-23T05:18:44;12.30;99.90
24446;DHT22;13347;50.984;5.822;2023-04-23T05:21:11;12.40;1.00
24446;DHT22;13347;50.984;5.822;2023-04-23T05:23:39;12.40;7.30
24446;DHT22;13347;50.984;5.822;2023-04-23T05:26:06;12.40;1.00
24446;DHT22;13347;50.984;5.822;2023-04-23T05:28:33;12.40;1.00
24446;DHT22;13347;50.984;5.822;2023-04-23T05:31:00;12.30;1.00
24446;DHT22;13347;50.984;5.822;2023-04-23T05:33:27;12.30;1.00
24446;DHT22;13347;50.984;5.822;2023-04-23T05:35:54;12.30;1.00
24446;DHT22;13347;50.984;5.822;2023-04-23T05:38:21;12.30;1.00
24446;DHT22;13347;50.984;5.822;2023-04-23T05:40:50;12.30;1.00
24446;DHT22;13347;50.984;5.822;2023-04-23T05:43:17;12.30;1.00
24446;DHT22;13347;50.984;5.822;2023-04-23T05:45:43;12.30;1.00
24446;DHT22;13347;50.984;5.822;2023-04-23T05:48:10;12.50;1.00
24446;DHT22;13347;50.984;5.822;2023-04-23T05:50:37;13.00;1.00
24446;DHT22;13347;50.984;5.822;2023-04-23T05:53:04;13.50;1.00
24446;DHT22;13347;50.984;5.822;2023-04-23T05:55:31;13.70;99.90
24446;DHT22;13347;50.984;5.822;2023-04-23T05:58:00;13.70;82.20
24446;DHT22;13347;50.984;5.822;2023-04-23T06:00:27;13.70;1.00
24446;DHT22;13347;50.984;5.822;2023-04-23T06:02:53;13.50;1.00
24446;DHT22;13347;50.984;5.822;2023-04-23T06:05:20;13.00;1.00
24446;DHT22;13347;50.984;5.822;2023-04-23T06:07:47;12.90;1.00
24446;DHT22;13347;50.984;5.822;2023-04-23T06:10:14;13.20;1.00
24446;DHT22;13347;50.984;5.822;2023-04-23T06:12:41;13.30;1.00
24446;DHT22;13347;50.984;5.822;2023-04-23T06:15:10;13.70;1.00
24446;DHT22;13347;50.984;5.822;2023-04-23T06:17:37;14.50;1.00
24446;DHT22;13347;50.984;5.822;2023-04-23T06:20:04;14.70;1.00
24446;DHT22;13347;50.984;5.822;2023-04-23T06:22:32;14.60;99.90
24446;DHT22;13347;50.984;5.822;2023-04-23T06:24:59;14.50;99.90
24446;DHT22;13347;50.984;5.822;2023-04-23T06:27:26;14.50;99.90
24446;DHT22;13347;50.984;5.822;2023-04-23T06:29:52;14.30;99.90
24446;DHT22;13347;50.984;5.822;2023-04-23T06:32:21;14.00;99.90
24446;DHT22;13347;50.984;5.822;2023-04-23T06:34:48;13.80;99.90
24446;DHT22;13347;50.984;5.822;2023-04-23T06:37:15;13.70;99.90
24446;DHT22;13347;50.984;5.822;2023-04-23T06:39:42;13.90;1.00
24446;DHT22;13347;50.984;5.822;2023-04-23T06:42:10;13.80;1.00
24446;DHT22;13347;50.984;5.822;2023-04-23T06:44:37;13.80;1.00
24446;DHT22;13347;50.984;5.822;2023-04-23T06:47:03;13.80;1.00
24446;DHT22;13347;50.984;5.822;2023-04-23T06:49:32;13.90;1.00
24446;DHT22;13347;50.984;5.822;2023-04-23T06:51:59;13.90;1.00
24446;DHT22;13347;50.984;5.822;2023-04-23T06:54:25;13.90;1.00
24446;DHT22;13347;50.984;5.822;2023-04-23T06:56:52;13.90;1.00
24446;DHT22;13347;50.984;5.822;2023-04-23T06:59:21;13.80;1.00
24446;DHT22;13347;50.984;5.822;2023-04-23T07:01:48;13.80;1.00
24446;DHT22;13347;50.984;5.822;2023-04-23T07:04:15;13.80;1.00
24446;DHT22;13347;50.984;5.822;2023-04-23T07:06:43;13.90;1.00
24446;DHT22;13347;50.984;5.822;2023-04-23T07:09:10;14.00;1.00
24446;DHT22;13347;50.984;5.822;2023-04-23T07:11:37;14.10;1.00
24446;DHT22;13347;50.984;5.822;2023-04-23T07:14:04;14.50;1.00
24446;DHT22;13347;50.984;5.822;2023-04-23T07:16:31;14.50;99.90
24446;DHT22;13347;50.984;5.822;2023-04-23T07:18:58;14.50;99.90
24446;DHT22;13347;50.984;5.822;2023-04-23T07:21:26;14.30;99.90
24446;DHT22;13347;50.984;5.822;2023-04-23T07:23:55;14.40;99.90
24446;DHT22;13347;50.984;5.822;2023-04-23T07:26:24;14.40;99.90
24446;DHT22;13347;50.984;5.822;2023-04-23T07:28:51;14.20;99.90
24446;DHT22;13347;50.984;5.822;2023-04-23T07:31:19;14.30;99.90
24446;DHT22;13347;50.984;5.822;2023-04-23T07:33:46;14.40;99.90
24446;DHT22;13347;50.984;5.822;2023-04-23T07:36:13;14.50;99.90
24446;DHT22;13347;50.984;5.822;2023-04-23T07:38:40;14.40;99.90
24446;DHT22;13347;50.984;5.822;2023-04-23T07:41:08;14.50;99.90
24446;DHT22;13347;50.984;5.822;2023-04-23T07:43:35;14.50;11.90
24446;DHT22;13347;50.984;5.822;2023-04-23T07:46:02;14.50;1.00
24446;DHT22;13347;50.984;5.822;2023-04-23T07:48:29;14.70;1.00
24446;DHT22;13347;50.984;5.822;2023-04-23T07:50:56;14.60;1.00
24446;DHT22;13347;50.984;5.822;2023-04-23T07:53:23;14.80;1.00
24446;DHT22;13347;50.984;5.822;2023-04-23T07:55:50;14.90;1.00
24446;DHT22;13347;50.984;5.822;2023-04-23T07:58:19;15.20;1.00
24446;DHT22;13347;50.984;5.822;2023-04-23T08:00:45;15.20;1.00
24446;DHT22;13347;50.984;5.822;2023-04-23T08:03:12;15.30;1.00
24446;DHT22;13347;50.984;5.822;2023-04-23T08:05:39;15.20;1.00
24446;DHT22;13347;50.984;5.822;2023-04-23T08:08:06;15.20;1.00
24446;DHT22;13347;50.984;5.822;2023-04-23T08:10:34;15.10;1.00
24446;DHT22;13347;50.984;5.822;2023-04-23T08:13:01;15.30;1.00
24446;DHT22;13347;50.984;5.822;2023-04-23T08:15:29;15.30;1.00
24446;DHT22;13347;50.984;5.822;2023-04-23T08:17:56;15.50;1.00
24446;DHT22;13347;50.984;5.822;2023-04-23T08:20:23;15.70;1.00
24446;DHT22;13347;50.984;5.822;2023-04-23T08:22:50;15.80;1.00
24446;DHT22;13347;50.984;5.822;2023-04-23T08:25:18;15.80;1.00
24446;DHT22;13347;50.984;5.822;2023-04-23T08:27:45;15.70;99.90
24446;DHT22;13347;50.984;5.822;2023-04-23T08:30:12;15.90;99.90
24446;DHT22;13347;50.984;5.822;2023-04-23T08:32:41;15.80;99.90
24446;DHT22;13347;50.984;5.822;2023-04-23T08:35:08;15.90;99.90
24446;DHT22;13347;50.984;5.822;2023-04-23T08:37:35;16.20;99.90
24446;DHT22;13347;50.984;5.822;2023-04-23T08:40:04;16.30;98.20
24446;DHT22;13347;50.984;5.822;2023-04-23T08:42:34;16.10;1.00
24446;DHT22;13347;50.984;5.822;2023-04-23T08:45:03;16.10;1.00
24446;DHT22;13347;50.984;5.822;2023-04-23T08:47:30;16.20;1.00
24446;DHT22;13347;50.984;5.822;2023-04-23T08:49:59;16.60;1.00
24446;DHT22;13347;50.984;5.822;2023-04-23T08:52:28;16.60;1.00
24446;DHT22;13347;50.984;5.822;2023-04-23T08:54:59;16.60;1.00
24446;DHT22;13347;50.984;5.822;2023-04-23T08:57:26;16.70;1.00
24446;DHT22;13347;50.984;5.822;2023-04-23T08:59:53;16.90;1.00
24446;DHT22;13347;50.984;5.822;2023-04-23T09:02:21;16.90;1.00
24446;DHT22;13347;50.984;5.822;2023-04-23T09:04:48;16.70;1.00
24446;DHT22;13347;50.984;5.822;2023-04-23T09:07:19;17.20;1.00
24446;DHT22;13347;50.984;5.822;2023-04-23T09:09:46;17.60;1.00
24446;DHT22;13347;50.984;5.822;2023-04-23T09:12:13;17.40;1.00
24446;DHT22;13347;50.984;5.822;2023-04-23T09:14:41;17.40;99.90
24446;DHT22;13347;50.984;5.822;2023-04-23T09:17:08;17.80;99.90
24446;DHT22;13347;50.984;5.822;2023-04-23T09:19:34;17.50;99.90
24446;DHT22;13347;50.984;5.822;2023-04-23T09:22:03;17.60;99.90
24446;DHT22;13347;50.984;5.822;2023-04-23T09:24:31;17.90;99.90
24446;DHT22;13347;50.984;5.822;2023-04-23T09:26:59;18.10;99.90
24446;DHT22;13347;50.984;5.822;2023-04-23T09:29:27;18.70;99.90
24446;DHT22;13347;50.984;5.822;2023-04-23T09:32:05;18.70;99.90
24446;DHT22;13347;50.984;5.822;2023-04-23T09:34:33;18.80;99.90
24446;DHT22;13347;50.984;5.822;2023-04-23T09:37:00;18.80;99.90
24446;DHT22;13347;50.984;5.822;2023-04-23T09:39:28;17.90;99.90
24446;DHT22;13347;50.984;5.822;2023-04-23T09:41:57;18.00;99.90
24446;DHT22;13347;50.984;5.822;2023-04-23T09:44:29;17.90;99.90
24446;DHT22;13347;50.984;5.822;2023-04-23T09:46:57;17.30;99.90
24446;DHT22;13347;50.984;5.822;2023-04-23T09:49:31;17.00;99.90
24446;DHT22;13347;50.984;5.822;2023-04-23T09:51:59;17.20;99.90
24446;DHT22;13347;50.984;5.822;2023-04-23T09:54:31;16.90;99.90
24446;DHT22;13347;50.984;5.822;2023-04-23T09:57:00;16.90;99.90
24446;DHT22;13347;50.984;5.822;2023-04-23T09:59:28;17.70;99.90
24446;DHT22;13347;50.984;5.822;2023-04-23T10:01:55;18.50;99.90
24446;DHT22;13347;50.984;5.822;2023-04-23T10:04:23;18.50;1.00
24446;DHT22;13347;50.984;5.822;2023-04-23T10:06:52;18.40;1.70
24446;DHT22;13347;50.984;5.822;2023-04-23T10:09:20;17.90;99.90
24446;DHT22;13347;50.984;5.822;2023-04-23T10:11:50;18.30;1.00
24446;DHT22;13347;50.984;5.822;2023-04-23T10:14:18;17.90;99.90
24446;DHT22;13347;50.984;5.822;2023-04-23T10:16:45;17.40;26.30
24446;DHT22;13347;50.984;5.822;2023-04-23T10:19:13;17.20;1.00
24446;DHT22;13347;50.984;5.822;2023-04-23T10:21:40;17.00;1.00
24446;DHT22;13347;50.984;5.822;2023-04-23T10:24:10;16.90;99.90
24446;DHT22;13347;50.984;5.822;2023-04-23T10:26:37;16.60;13.40
24446;DHT22;13347;50.984;5.822;2023-04-23T10:29:04;16.70;99.90
24446;DHT22;13347;50.984;5.822;2023-04-23T10:31:36;16.60;99.90
24446;DHT22;13347;50.984;5.822;2023-04-23T10:34:04;16.60;99.90
24446;DHT22;13347;50.984;5.822;2023-04-23T10:36:32;16.90;99.90
24446;DHT22;13347;50.984;5.822;2023-04-23T10:38:59;17.00;25.50
24446;DHT22;13347;50.984;5.822;2023-04-23T10:41:30;17.20;50.10
24446;DHT22;13347;50.984;5.822;2023-04-23T10:44:00;17.40;99.90
24446;DHT22;13347;50.984;5.822;2023-04-23T10:46:27;17.30;18.40
24446;DHT22;13347;50.984;5.822;2023-04-23T10:49:05;17.60;48.20
24446;DHT22;13347;50.984;5.822;2023-04-23T10:51:32;17.80;36.80
24446;DHT22;13347;50.984;5.822;2023-04-23T10:54:01;18.20;37.90
24446;DHT22;13347;50.984;5.822;2023-04-23T10:56:28;17.80;1.00
24446;DHT22;13347;50.984;5.822;2023-04-23T10:58:55;17.50;1.00
24446;DHT22;13347;50.984;5.822;2023-04-23T11:01:23;17.40;1.00
24446;DHT22;13347;50.984;5.822;2023-04-23T11:03:50;17.70;1.00
24446;DHT22;13347;50.984;5.822;2023-04-23T11:06:20;17.80;1.00
24446;DHT22;13347;50.984;5.822;2023-04-23T11:11:49;17.50;1.00
24446;DHT22;13347;50.984;5.822;2023-04-23T11:14:16;17.70;1.00
24446;DHT22;13347;50.984;5.822;2023-04-23T11:16:43;17.70;1.00
24446;DHT22;13347;50.984;5.822;2023-04-23T11:19:10;18.10;1.00
24446;DHT22;13347;50.984;5.822;2023-04-23T11:21:58;17.90;1.00
24446;DHT22;13347;50.984;5.822;2023-04-23T11:24:35;17.80;1.00
24446;DHT22;13347;50.984;5.822;2023-04-23T11:27:07;17.90;1.00
24446;DHT22;13347;50.984;5.822;2023-04-23T11:29:34;18.00;1.00
24446;DHT22;13347;50.984;5.822;2023-04-23T11:32:02;17.50;1.00
24446;DHT22;13347;50.984;5.822;2023-04-23T11:34:30;17.80;1.00
24446;DHT22;13347;50.984;5.822;2023-04-23T11:36:59;18.10;1.00
24446;DHT22;13347;50.984;5.822;2023-04-23T11:39:27;18.00;1.00
24446;DHT22;13347;50.984;5.822;2023-04-23T11:41:54;18.50;1.00
24446;DHT22;13347;50.984;5.822;2023-04-23T11:44:23;18.70;1.00
24446;DHT22;13347;50.984;5.822;2023-04-23T11:46:50;18.40;1.00
24446;DHT22;13347;50.984;5.822;2023-04-23T11:49:17;18.20;1.00
24446;DHT22;13347;50.984;5.822;2023-04-23T11:51:44;18.30;1.00
24446;DHT22;13347;50.984;5.822;2023-04-23T11:54:13;18.30;1.00
24446;DHT22;13347;50.984;5.822;2023-04-23T11:56:40;18.30;1.00
24446;DHT22;13347;50.984;5.822;2023-04-23T11:59:08;18.60;1.00
24446;DHT22;13347;50.984;5.822;2023-04-23T12:01:44;19.30;1.00
24446;DHT22;13347;50.984;5.822;2023-04-23T12:04:12;18.90;1.00
24446;DHT22;13347;50.984;5.822;2023-04-23T12:06:39;19.20;1.00
24446;DHT22;13347;50.984;5.822;2023-04-23T12:09:06;19.20;1.00
24446;DHT22;13347;50.984;5.822;2023-04-23T12:11:36;19.20;1.00
24446;DHT22;13347;50.984;5.822;2023-04-23T12:14:03;18.60;1.00
24446;DHT22;13347;50.984;5.822;2023-04-23T12:16:37;18.40;1.00
24446;DHT22;13347;50.984;5.822;2023-04-23T12:19:06;18.80;1.00
24446;DHT22;13347;50.984;5.822;2023-04-23T12:21:33;18.80;1.00
24446;DHT22;13347;50.984;5.822;2023-04-23T12:24:02;18.80;1.00
24446;DHT22;13347;50.984;5.822;2023-04-23T12:26:29;18.40;1.00
24446;DHT22;13347;50.984;5.822;2023-04-23T12:28:58;18.20;1.00
24446;DHT22;13347;50.984;5.822;2023-04-23T12:31:26;17.90;1.00
24446;DHT22;13347;50.984;5.822;2023-04-23T12:33:56;18.00;1.00
24446;DHT22;13347;50.984;5.822;2023-04-23T12:36:25;18.40;1.00
24446;DHT22;13347;50.984;5.822;2023-04-23T12:38:52;18.40;1.00
24446;DHT22;13347;50.984;5.822;2023-04-23T12:41:19;18.20;1.00
24446;DHT22;13347;50.984;5.822;2023-04-23T12:43:46;18.40;1.00
24446;DHT22;13347;50.984;5.822;2023-04-23T12:46:16;19.00;1.00
24446;DHT22;13347;50.984;5.822;2023-04-23T12:48:43;19.10;1.00
24446;DHT22;13347;50.984;5.822;2023-04-23T12:51:10;18.40;1.00
24446;DHT22;13347;50.984;5.822;2023-04-23T12:53:37;18.40;1.00
24446;DHT22;13347;50.984;5.822;2023-04-23T12:56:04;18.60;1.00
24446;DHT22;13347;50.984;5.822;2023-04-23T12:58:31;18.50;1.00
24446;DHT22;13347;50.984;5.822;2023-04-23T13:00:58;18.40;1.00
24446;DHT22;13347;50.984;5.822;2023-04-23T13:03:26;18.30;1.00
24446;DHT22;13347;50.984;5.822;2023-04-23T13:05:53;18.00;1.00
24446;DHT22;13347;50.984;5.822;2023-04-23T13:08:20;18.00;1.00
24446;DHT22;13347;50.984;5.822;2023-04-23T13:10:47;18.00;1.00
24446;DHT22;13347;50.984;5.822;2023-04-23T13:13:15;17.80;1.00
24446;DHT22;13347;50.984;5.822;2023-04-23T13:15:41;17.70;1.00
24446;DHT22;13347;50.984;5.822;2023-04-23T13:18:08;17.70;1.00
24446;DHT22;13347;50.984;5.822;2023-04-23T13:20:37;17.30;1.00
24446;DHT22;13347;50.984;5.822;2023-04-23T13:23:04;16.80;1.00
24446;DHT22;13347;50.984;5.822;2023-04-23T13:25:33;16.00;1.00
24446;DHT22;13347;50.984;5.822;2023-04-23T13:28:00;14.90;1.00
24446;DHT22;13347;50.984;5.822;2023-04-23T13:30:27;14.40;1.00
24446;DHT22;13347;50.984;5.822;2023-04-23T13:32:54;14.30;1.00
24446;DHT22;13347;50.984;5.822;2023-04-23T13:35:23;14.30;1.00
24446;DHT22;13347;50.984;5.822;2023-04-23T13:37:52;14.20;1.00
24446;DHT22;13347;50.984;5.822;2023-04-23T22:53:23;10.50;40.40
24446;DHT22;13347;50.984;5.822;2023-04-23T22:55:50;10.40;1.00
24446;DHT22;13347;50.984;5.822;2023-04-23T22:58:17;10.30;1.00
24446;DHT22;13347;50.984;5.822;2023-04-23T23:00:44;10.30;1.00
24446;DHT22;13347;50.984;5.822;2023-04-23T23:03:11;10.20;1.00
24446;DHT22;13347;50.984;5.822;2023-04-23T23:05:38;10.30;1.00
24446;DHT22;13347;50.984;5.822;2023-04-23T23:08:05;10.30;1.00
24446;DHT22;13347;50.984;5.822;2023-04-23T23:10:33;10.30;1.00
24446;DHT22;13347;50.984;5.822;2023-04-23T23:13:00;10.30;1.00
24446;DHT22;13347;50.984;5.822;2023-04-23T23:15:27;10.30;1.00
24446;DHT22;13347;50.984;5.822;2023-04-23T23:17:54;10.30;1.00
24446;DHT22;13347;50.984;5.822;2023-04-23T23:20:22;10.20;99.90
24446;DHT22;13347;50.984;5.822;2023-04-23T23:22:49;10.20;1.00
24446;DHT22;13347;50.984;5.822;2023-04-23T23:25:16;10.20;99.90
24446;DHT22;13347;50.984;5.822;2023-04-23T23:27:44;10.20;1.00
24446;DHT22;13347;50.984;5.822;2023-04-23T23:30:11;10.20;99.90
24446;DHT22;13347;50.984;5.822;2023-04-23T23:32:38;10.20;99.90
24446;DHT22;13347;50.984;5.822;2023-04-23T23:35:05;10.20;99.90
24446;DHT22;13347;50.984;5.822;2023-04-23T23:37:33;10.20;99.90
24446;DHT22;13347;50.984;5.822;2023-04-23T23:40:00;10.20;99.90
24446;DHT22;13347;50.984;5.822;2023-04-23T23:42:28;10.10;99.90
24446;DHT22;13347;50.984;5.822;2023-04-23T23:44:56;10.10;99.90
24446;DHT22;13347;50.984;5.822;2023-04-23T23:47:23;10.10;99.90
24446;DHT22;13347;50.984;5.822;2023-04-23T23:49:50;10.10;99.90
24446;DHT22;13347;50.984;5.822;2023-04-23T23:52:17;10.10;99.90
24446;DHT22;13347;50.984;5.822;2023-04-23T23:54:44;10.00;99.90
24446;DHT22;13347;50.984;5.822;2023-04-23T23:57:11;9.90;99.90
24446;DHT22;13347;50.984;5.822;2023-04-23T23:59:37;9.90;99.90
